sensor_id;sensor_type;location;lat;lon;timestamp;temperature;humidity
29939;DHT22;16799;50.844;5.304;2022-08-19T00:01:53;20.10;99.90
29939;DHT22;16799;50.844;5.304;2022-08-19T00:04:22;20.00;99.90
29939;DHT22;16799;50.844;5.304;2022-08-19T00:06:48;20.10;99.90
29939;DHT22;16799;50.844;5.304;2022-08-19T00:09:17;20.10;99.90
29939;DHT22;16799;50.844;5.304;2022-08-19T00:11:43;20.20;99.90
29939;DHT22;16799;50.844;5.304;2022-08-19T00:14:11;20.30;99.90
29939;DHT22;16799;50.844;5.304;2022-08-19T00:16:39;20.40;99.90
29939;DHT22;16799;50.844;5.304;2022-08-19T00:19:05;20.20;99.90
29939;DHT22;16799;50.844;5.304;2022-08-19T00:21:31;20.00;99.90
29939;DHT22;16799;50.844;5.304;2022-08-19T00:23:57;20.00;99.90
29939;DHT22;16799;50.844;5.304;2022-08-19T00:26:25;20.00;99.90
29939;DHT22;16799;50.844;5.304;2022-08-19T00:28:51;19.90;99.90
29939;DHT22;16799;50.844;5.304;2022-08-19T00:31:17;19.80;99.90
29939;DHT22;16799;50.844;5.304;2022-08-19T00:33:42;19.80;99.90
29939;DHT22;16799;50.844;5.304;2022-08-19T00:36:09;19.80;99.90
29939;DHT22;16799;50.844;5.304;2022-08-19T00:38:37;19.90;99.90
29939;DHT22;16799;50.844;5.304;2022-08-19T00:41:06;19.80;99.90
29939;DHT22;16799;50.844;5.304;2022-08-19T00:43:32;19.70;99.90
29939;DHT22;16799;50.844;5.304;2022-08-19T00:45:58;19.80;99.90
29939;DHT22;16799;50.844;5.304;2022-08-19T00:48:24;19.80;99.90
29939;DHT22;16799;50.844;5.304;2022-08-19T00:50:52;19.80;99.90
29939;DHT22;16799;50.844;5.304;2022-08-19T00:53:21;19.70;99.90
29939;DHT22;16799;50.844;5.304;2022-08-19T00:55:50;19.70;99.90
29939;DHT22;16799;50.844;5.304;2022-08-19T00:58:18;19.60;99.90
29939;DHT22;16799;50.844;5.304;2022-08-19T01:00:45;19.70;99.90
29939;DHT22;16799;50.844;5.304;2022-08-19T01:03:13;19.70;99.90
29939;DHT22;16799;50.844;5.304;2022-08-19T01:05:41;19.50;99.90
29939;DHT22;16799;50.844;5.304;2022-08-19T01:08:07;19.40;99.90
29939;DHT22;16799;50.844;5.304;2022-08-19T01:10:42;18.90;99.90
29939;DHT22;16799;50.844;5.304;2022-08-19T01:13:08;18.70;99.90
29939;DHT22;16799;50.844;5.304;2022-08-19T01:15:47;18.40;99.90
29939;DHT22;16799;50.844;5.304;2022-08-19T01:18:15;18.20;99.90
29939;DHT22;16799;50.844;5.304;2022-08-19T01:20:43;18.00;99.90
29939;DHT22;16799;50.844;5.304;2022-08-19T01:23:09;18.00;99.90
29939;DHT22;16799;50.844;5.304;2022-08-19T01:25:50;17.90;99.90
29939;DHT22;16799;50.844;5.304;2022-08-19T01:28:24;18.00;99.90
29939;DHT22;16799;50.844;5.304;2022-08-19T01:30:54;18.00;99.90
29939;DHT22;16799;50.844;5.304;2022-08-19T01:33:21;18.00;99.90
29939;DHT22;16799;50.844;5.304;2022-08-19T01:35:47;18.00;99.90
29939;DHT22;16799;50.844;5.304;2022-08-19T01:38:26;17.90;99.90
29939;DHT22;16799;50.844;5.304;2022-08-19T01:40:52;17.80;99.90
29939;DHT22;16799;50.844;5.304;2022-08-19T01:43:19;17.80;99.90
29939;DHT22;16799;50.844;5.304;2022-08-19T01:45:45;17.80;99.90
29939;DHT22;16799;50.844;5.304;2022-08-19T01:48:11;17.80;99.90
29939;DHT22;16799;50.844;5.304;2022-08-19T01:50:37;17.70;99.90
29939;DHT22;16799;50.844;5.304;2022-08-19T01:53:06;17.70;99.90
29939;DHT22;16799;50.844;5.304;2022-08-19T01:55:33;17.70;99.90
29939;DHT22;16799;50.844;5.304;2022-08-19T01:58:02;17.70;99.90
29939;DHT22;16799;50.844;5.304;2022-08-19T02:00:31;17.70;99.90
29939;DHT22;16799;50.844;5.304;2022-08-19T02:02:57;17.70;99.90
29939;DHT22;16799;50.844;5.304;2022-08-19T02:05:23;17.70;99.90
29939;DHT22;16799;50.844;5.304;2022-08-19T02:07:49;17.60;99.90
29939;DHT22;16799;50.844;5.304;2022-08-19T02:10:19;17.60;99.90
29939;DHT22;16799;50.844;5.304;2022-08-19T02:12:47;17.60;99.90
29939;DHT22;16799;50.844;5.304;2022-08-19T02:15:13;17.60;99.90
29939;DHT22;16799;50.844;5.304;2022-08-19T02:17:40;17.60;99.90
29939;DHT22;16799;50.844;5.304;2022-08-19T02:20:06;17.60;99.90
29939;DHT22;16799;50.844;5.304;2022-08-19T02:22:32;17.50;99.90
29939;DHT22;16799;50.844;5.304;2022-08-19T02:24:58;17.50;99.90
29939;DHT22;16799;50.844;5.304;2022-08-19T02:27:24;17.50;99.90
29939;DHT22;16799;50.844;5.304;2022-08-19T02:29:51;17.50;99.90
29939;DHT22;16799;50.844;5.304;2022-08-19T02:32:18;17.50;99.90
29939;DHT22;16799;50.844;5.304;2022-08-19T02:34:45;17.50;99.90
29939;DHT22;16799;50.844;5.304;2022-08-19T02:37:11;17.40;99.90
29939;DHT22;16799;50.844;5.304;2022-08-19T02:39:57;17.40;99.90
29939;DHT22;16799;50.844;5.304;2022-08-19T02:42:23;17.40;99.90
29939;DHT22;16799;50.844;5.304;2022-08-19T02:44:49;17.50;99.90
29939;DHT22;16799;50.844;5.304;2022-08-19T02:47:14;17.50;99.90
29939;DHT22;16799;50.844;5.304;2022-08-19T02:49:41;17.40;99.90
29939;DHT22;16799;50.844;5.304;2022-08-19T02:52:07;17.40;99.90
29939;DHT22;16799;50.844;5.304;2022-08-19T02:54:33;17.40;99.90
29939;DHT22;16799;50.844;5.304;2022-08-19T02:56:59;17.30;99.90
29939;DHT22;16799;50.844;5.304;2022-08-19T02:59:25;17.30;99.90
29939;DHT22;16799;50.844;5.304;2022-08-19T03:01:51;17.30;99.90
29939;DHT22;16799;50.844;5.304;2022-08-19T03:04:17;17.30;99.90
29939;DHT22;16799;50.844;5.304;2022-08-19T03:06:46;17.30;99.90
29939;DHT22;16799;50.844;5.304;2022-08-19T03:09:13;17.30;99.90
29939;DHT22;16799;50.844;5.304;2022-08-19T03:11:39;17.20;99.90
29939;DHT22;16799;50.844;5.304;2022-08-19T03:14:06;17.20;99.90
29939;DHT22;16799;50.844;5.304;2022-08-19T03:16:34;17.20;99.90
29939;DHT22;16799;50.844;5.304;2022-08-19T03:19:01;17.20;99.90
29939;DHT22;16799;50.844;5.304;2022-08-19T03:21:29;17.20;99.90
29939;DHT22;16799;50.844;5.304;2022-08-19T03:23:56;17.20;99.90
29939;DHT22;16799;50.844;5.304;2022-08-19T03:26:22;17.20;99.90
29939;DHT22;16799;50.844;5.304;2022-08-19T03:28:48;17.20;99.90
29939;DHT22;16799;50.844;5.304;2022-08-19T03:31:17;17.10;99.90
29939;DHT22;16799;50.844;5.304;2022-08-19T03:33:44;17.10;99.90
29939;DHT22;16799;50.844;5.304;2022-08-19T03:36:15;17.10;99.90
29939;DHT22;16799;50.844;5.304;2022-08-19T03:38:44;17.20;99.90
29939;DHT22;16799;50.844;5.304;2022-08-19T03:41:14;17.10;99.90
29939;DHT22;16799;50.844;5.304;2022-08-19T03:43:41;17.10;99.90
29939;DHT22;16799;50.844;5.304;2022-08-19T03:46:13;17.00;99.90
29939;DHT22;16799;50.844;5.304;2022-08-19T03:48:41;17.00;99.90
29939;DHT22;16799;50.844;5.304;2022-08-19T03:51:18;16.90;99.90
29939;DHT22;16799;50.844;5.304;2022-08-19T03:53:45;16.90;99.90
29939;DHT22;16799;50.844;5.304;2022-08-19T03:56:11;16.90;99.90
29939;DHT22;16799;50.844;5.304;2022-08-19T03:58:38;16.80;99.90
29939;DHT22;16799;50.844;5.304;2022-08-19T04:01:12;16.80;99.90
29939;DHT22;16799;50.844;5.304;2022-08-19T04:03:38;16.80;99.90
29939;DHT22;16799;50.844;5.304;2022-08-19T04:06:17;16.70;99.90
29939;DHT22;16799;50.844;5.304;2022-08-19T04:08:45;16.70;99.90
29939;DHT22;16799;50.844;5.304;2022-08-19T04:11:14;16.70;99.90
29939;DHT22;16799;50.844;5.304;2022-08-19T04:13:40;16.70;99.90
29939;DHT22;16799;50.844;5.304;2022-08-19T04:16:07;16.60;99.90
29939;DHT22;16799;50.844;5.304;2022-08-19T04:18:34;16.60;99.90
29939;DHT22;16799;50.844;5.304;2022-08-19T04:20:59;16.60;99.90
29939;DHT22;16799;50.844;5.304;2022-08-19T04:23:26;16.60;99.90
29939;DHT22;16799;50.844;5.304;2022-08-19T04:25:54;16.80;99.90
29939;DHT22;16799;50.844;5.304;2022-08-19T04:28:20;17.00;99.90
29939;DHT22;16799;50.844;5.304;2022-08-19T04:30:49;17.10;99.90
29939;DHT22;16799;50.844;5.304;2022-08-19T04:33:17;17.30;99.90
29939;DHT22;16799;50.844;5.304;2022-08-19T04:35:46;17.30;99.90
29939;DHT22;16799;50.844;5.304;2022-08-19T04:38:13;17.40;99.90
29939;DHT22;16799;50.844;5.304;2022-08-19T04:40:47;17.40;99.90
29939;DHT22;16799;50.844;5.304;2022-08-19T04:43:33;17.40;99.90
29939;DHT22;16799;50.844;5.304;2022-08-19T04:46:06;17.40;99.90
29939;DHT22;16799;50.844;5.304;2022-08-19T04:48:32;17.30;99.90
29939;DHT22;16799;50.844;5.304;2022-08-19T04:50:58;17.30;99.90
29939;DHT22;16799;50.844;5.304;2022-08-19T04:53:31;17.20;99.90
29939;DHT22;16799;50.844;5.304;2022-08-19T04:55:59;17.20;99.90
29939;DHT22;16799;50.844;5.304;2022-08-19T04:58:27;17.10;99.90
29939;DHT22;16799;50.844;5.304;2022-08-19T05:00:53;17.20;99.90
29939;DHT22;16799;50.844;5.304;2022-08-19T05:03:20;17.10;99.90
29939;DHT22;16799;50.844;5.304;2022-08-19T05:05:47;17.10;99.90
29939;DHT22;16799;50.844;5.304;2022-08-19T05:08:16;17.10;99.90
29939;DHT22;16799;50.844;5.304;2022-08-19T05:10:47;17.30;99.90
29939;DHT22;16799;50.844;5.304;2022-08-19T05:13:14;17.40;99.90
29939;DHT22;16799;50.844;5.304;2022-08-19T05:15:41;17.40;99.90
29939;DHT22;16799;50.844;5.304;2022-08-19T05:18:07;17.40;99.90
29939;DHT22;16799;50.844;5.304;2022-08-19T05:20:51;17.40;99.90
29939;DHT22;16799;50.844;5.304;2022-08-19T05:23:35;17.40;99.90
29939;DHT22;16799;50.844;5.304;2022-08-19T05:26:01;17.50;99.90
29939;DHT22;16799;50.844;5.304;2022-08-19T05:28:26;17.50;99.90
29939;DHT22;16799;50.844;5.304;2022-08-19T05:30:53;17.50;99.90
29939;DHT22;16799;50.844;5.304;2022-08-19T05:33:21;17.50;99.90
29939;DHT22;16799;50.844;5.304;2022-08-19T05:35:47;17.30;99.90
29939;DHT22;16799;50.844;5.304;2022-08-19T05:38:16;17.10;99.90
29939;DHT22;16799;50.844;5.304;2022-08-19T05:40:42;17.00;99.90
29939;DHT22;16799;50.844;5.304;2022-08-19T05:43:11;17.10;99.90
29939;DHT22;16799;50.844;5.304;2022-08-19T05:45:41;17.10;99.90
29939;DHT22;16799;50.844;5.304;2022-08-19T05:48:08;17.30;99.90
29939;DHT22;16799;50.844;5.304;2022-08-19T05:50:37;17.40;99.90
29939;DHT22;16799;50.844;5.304;2022-08-19T05:53:03;17.50;99.90
29939;DHT22;16799;50.844;5.304;2022-08-19T05:55:29;17.70;99.90
29939;DHT22;16799;50.844;5.304;2022-08-19T05:57:55;17.80;99.90
29939;DHT22;16799;50.844;5.304;2022-08-19T06:00:21;17.70;99.90
29939;DHT22;16799;50.844;5.304;2022-08-19T06:02:46;17.70;99.90
29939;DHT22;16799;50.844;5.304;2022-08-19T06:05:12;17.70;99.90
29939;DHT22;16799;50.844;5.304;2022-08-19T06:07:39;17.70;99.90
29939;DHT22;16799;50.844;5.304;2022-08-19T06:10:07;17.60;99.90
29939;DHT22;16799;50.844;5.304;2022-08-19T06:12:34;17.50;99.90
29939;DHT22;16799;50.844;5.304;2022-08-19T06:15:03;17.50;99.90
29939;DHT22;16799;50.844;5.304;2022-08-19T06:17:29;17.50;99.90
29939;DHT22;16799;50.844;5.304;2022-08-19T06:19:56;17.60;99.90
29939;DHT22;16799;50.844;5.304;2022-08-19T06:22:21;17.80;99.90
29939;DHT22;16799;50.844;5.304;2022-08-19T06:24:47;17.80;99.90
29939;DHT22;16799;50.844;5.304;2022-08-19T06:27:13;17.90;99.90
29939;DHT22;16799;50.844;5.304;2022-08-19T06:29:38;18.00;99.90
29939;DHT22;16799;50.844;5.304;2022-08-19T06:32:04;17.90;99.90
29939;DHT22;16799;50.844;5.304;2022-08-19T06:34:32;17.80;99.90
29939;DHT22;16799;50.844;5.304;2022-08-19T06:36:59;17.80;99.90
29939;DHT22;16799;50.844;5.304;2022-08-19T06:39:29;17.80;99.90
29939;DHT22;16799;50.844;5.304;2022-08-19T06:41:58;17.80;99.90
29939;DHT22;16799;50.844;5.304;2022-08-19T06:44:27;17.80;99.90
29939;DHT22;16799;50.844;5.304;2022-08-19T06:46:54;17.80;99.90
29939;DHT22;16799;50.844;5.304;2022-08-19T06:49:21;17.80;99.90
29939;DHT22;16799;50.844;5.304;2022-08-19T06:51:47;17.90;99.90
29939;DHT22;16799;50.844;5.304;2022-08-19T06:54:14;18.00;99.90
29939;DHT22;16799;50.844;5.304;2022-08-19T06:56:40;18.00;99.90
29939;DHT22;16799;50.844;5.304;2022-08-19T06:59:10;18.10;99.90
29939;DHT22;16799;50.844;5.304;2022-08-19T07:01:37;18.20;99.90
29939;DHT22;16799;50.844;5.304;2022-08-19T07:04:05;18.30;99.90
29939;DHT22;16799;50.844;5.304;2022-08-19T07:06:31;18.50;99.90
29939;DHT22;16799;50.844;5.304;2022-08-19T07:08:57;18.50;99.90
29939;DHT22;16799;50.844;5.304;2022-08-19T07:11:24;18.70;99.90
29939;DHT22;16799;50.844;5.304;2022-08-19T07:13:50;18.80;99.90
29939;DHT22;16799;50.844;5.304;2022-08-19T07:16:18;18.80;99.90
29939;DHT22;16799;50.844;5.304;2022-08-19T07:18:45;18.90;99.90
29939;DHT22;16799;50.844;5.304;2022-08-19T07:21:18;18.90;99.90
29939;DHT22;16799;50.844;5.304;2022-08-19T07:23:45;18.90;99.90
29939;DHT22;16799;50.844;5.304;2022-08-19T07:26:22;19.00;99.90
29939;DHT22;16799;50.844;5.304;2022-08-19T07:28:48;19.10;99.90
29939;DHT22;16799;50.844;5.304;2022-08-19T07:31:17;19.30;99.90
29939;DHT22;16799;50.844;5.304;2022-08-19T07:33:47;19.20;99.90
29939;DHT22;16799;50.844;5.304;2022-08-19T07:36:16;19.30;99.90
29939;DHT22;16799;50.844;5.304;2022-08-19T07:38:45;19.40;99.90
29939;DHT22;16799;50.844;5.304;2022-08-19T07:41:20;19.70;99.90
29939;DHT22;16799;50.844;5.304;2022-08-19T07:43:47;19.70;99.90
29939;DHT22;16799;50.844;5.304;2022-08-19T07:46:13;19.70;99.90
29939;DHT22;16799;50.844;5.304;2022-08-19T07:48:41;19.90;99.90
29939;DHT22;16799;50.844;5.304;2022-08-19T07:51:09;19.90;99.90
29939;DHT22;16799;50.844;5.304;2022-08-19T07:53:36;19.90;99.90
29939;DHT22;16799;50.844;5.304;2022-08-19T07:56:03;20.00;99.90
29939;DHT22;16799;50.844;5.304;2022-08-19T07:58:35;20.30;99.90
29939;DHT22;16799;50.844;5.304;2022-08-19T08:01:01;20.80;99.90
29939;DHT22;16799;50.844;5.304;2022-08-19T08:03:28;21.10;99.90
29939;DHT22;16799;50.844;5.304;2022-08-19T08:06:14;21.40;99.90
29939;DHT22;16799;50.844;5.304;2022-08-19T08:09:03;21.50;99.90
29939;DHT22;16799;50.844;5.304;2022-08-19T08:11:47;21.40;99.90
29939;DHT22;16799;50.844;5.304;2022-08-19T08:14:19;21.20;99.90
29939;DHT22;16799;50.844;5.304;2022-08-19T08:16:45;21.20;99.90
29939;DHT22;16799;50.844;5.304;2022-08-19T08:19:12;21.20;99.90
29939;DHT22;16799;50.844;5.304;2022-08-19T08:21:40;21.10;99.90
29939;DHT22;16799;50.844;5.304;2022-08-19T08:24:07;21.00;99.90
29939;DHT22;16799;50.844;5.304;2022-08-19T08:26:32;21.00;99.90
29939;DHT22;16799;50.844;5.304;2022-08-19T08:28:58;21.00;99.90
29939;DHT22;16799;50.844;5.304;2022-08-19T08:31:24;21.00;99.90
29939;DHT22;16799;50.844;5.304;2022-08-19T08:33:49;21.10;99.90
29939;DHT22;16799;50.844;5.304;2022-08-19T08:36:15;21.20;99.90
29939;DHT22;16799;50.844;5.304;2022-08-19T08:38:42;21.60;99.90
29939;DHT22;16799;50.844;5.304;2022-08-19T08:41:35;21.70;99.90
29939;DHT22;16799;50.844;5.304;2022-08-19T08:44:03;21.40;99.90
29939;DHT22;16799;50.844;5.304;2022-08-19T08:46:42;21.60;99.90
29939;DHT22;16799;50.844;5.304;2022-08-19T08:49:33;22.00;99.90
29939;DHT22;16799;50.844;5.304;2022-08-19T08:52:26;21.90;99.90
29939;DHT22;16799;50.844;5.304;2022-08-19T08:54:55;22.20;99.90
29939;DHT22;16799;50.844;5.304;2022-08-19T08:59:51;23.00;99.90
29939;DHT22;16799;50.844;5.304;2022-08-19T09:02:19;23.60;99.90
29939;DHT22;16799;50.844;5.304;2022-08-19T09:04:45;23.60;99.90
29939;DHT22;16799;50.844;5.304;2022-08-19T09:15:40;23.70;99.90
29939;DHT22;16799;50.844;5.304;2022-08-19T09:18:08;23.90;99.90
29939;DHT22;16799;50.844;5.304;2022-08-19T09:20:34;24.10;99.90
29939;DHT22;16799;50.844;5.304;2022-08-19T09:22:59;24.00;99.70
29939;DHT22;16799;50.844;5.304;2022-08-19T09:25:26;23.20;99.90
29939;DHT22;16799;50.844;5.304;2022-08-19T09:27:52;23.30;99.90
29939;DHT22;16799;50.844;5.304;2022-08-19T09:30:30;23.40;99.90
29939;DHT22;16799;50.844;5.304;2022-08-19T09:32:55;23.90;99.00
29939;DHT22;16799;50.844;5.304;2022-08-19T09:35:23;23.90;99.50
29939;DHT22;16799;50.844;5.304;2022-08-19T09:37:51;24.20;99.30
29939;DHT22;16799;50.844;5.304;2022-08-19T09:40:17;24.70;98.00
29939;DHT22;16799;50.844;5.304;2022-08-19T09:42:44;24.90;97.60
29939;DHT22;16799;50.844;5.304;2022-08-19T09:45:16;24.90;97.70
29939;DHT22;16799;50.844;5.304;2022-08-19T09:47:42;24.60;97.00
29939;DHT22;16799;50.844;5.304;2022-08-19T09:50:10;24.80;96.90
29939;DHT22;16799;50.844;5.304;2022-08-19T09:52:36;25.20;96.30
29939;DHT22;16799;50.844;5.304;2022-08-19T09:55:06;25.10;95.00
29939;DHT22;16799;50.844;5.304;2022-08-19T09:57:32;24.90;95.50
29939;DHT22;16799;50.844;5.304;2022-08-19T09:59:58;24.50;96.40
29939;DHT22;16799;50.844;5.304;2022-08-19T10:02:24;24.00;97.80
29939;DHT22;16799;50.844;5.304;2022-08-19T10:04:50;24.30;97.80
29939;DHT22;16799;50.844;5.304;2022-08-19T10:07:34;24.90;95.80
29939;DHT22;16799;50.844;5.304;2022-08-19T10:10:00;25.30;95.20
29939;DHT22;16799;50.844;5.304;2022-08-19T10:12:26;25.80;94.00
29939;DHT22;16799;50.844;5.304;2022-08-19T10:14:52;26.40;92.60
29939;DHT22;16799;50.844;5.304;2022-08-19T10:17:20;27.00;92.00
29939;DHT22;16799;50.844;5.304;2022-08-19T10:19:46;26.60;91.20
29939;DHT22;16799;50.844;5.304;2022-08-19T10:22:12;26.00;92.20
29939;DHT22;16799;50.844;5.304;2022-08-19T10:24:39;25.70;92.60
29939;DHT22;16799;50.844;5.304;2022-08-19T10:27:05;25.60;91.40
29939;DHT22;16799;50.844;5.304;2022-08-19T10:29:31;25.90;91.20
29939;DHT22;16799;50.844;5.304;2022-08-19T10:32:05;26.00;90.60
29939;DHT22;16799;50.844;5.304;2022-08-19T10:34:34;26.50;90.60
29939;DHT22;16799;50.844;5.304;2022-08-19T10:37:02;26.90;90.50
29939;DHT22;16799;50.844;5.304;2022-08-19T10:39:33;26.40;90.10
29939;DHT22;16799;50.844;5.304;2022-08-19T10:41:58;25.90;91.70
29939;DHT22;16799;50.844;5.304;2022-08-19T10:44:24;25.90;91.80
29939;DHT22;16799;50.844;5.304;2022-08-19T10:46:50;25.70;92.00
29939;DHT22;16799;50.844;5.304;2022-08-19T10:49:17;25.50;92.60
29939;DHT22;16799;50.844;5.304;2022-08-19T10:51:45;25.10;93.10
29939;DHT22;16799;50.844;5.304;2022-08-19T10:54:29;25.00;93.90
29939;DHT22;16799;50.844;5.304;2022-08-19T10:57:14;25.10;94.10
29939;DHT22;16799;50.844;5.304;2022-08-19T10:59:40;24.90;93.80
29939;DHT22;16799;50.844;5.304;2022-08-19T11:02:08;25.10;94.10
29939;DHT22;16799;50.844;5.304;2022-08-19T11:04:36;25.30;93.60
29939;DHT22;16799;50.844;5.304;2022-08-19T11:07:03;25.40;93.20
29939;DHT22;16799;50.844;5.304;2022-08-19T11:09:29;26.10;92.60
29939;DHT22;16799;50.844;5.304;2022-08-19T11:11:56;26.80;91.20
29939;DHT22;16799;50.844;5.304;2022-08-19T11:14:22;27.10;90.30
29939;DHT22;16799;50.844;5.304;2022-08-19T11:16:50;26.80;90.40
29939;DHT22;16799;50.844;5.304;2022-08-19T11:19:16;26.30;91.60
29939;DHT22;16799;50.844;5.304;2022-08-19T11:21:46;26.50;91.80
29939;DHT22;16799;50.844;5.304;2022-08-19T11:24:16;26.10;92.20
29939;DHT22;16799;50.844;5.304;2022-08-19T11:26:43;26.00;92.50
29939;DHT22;16799;50.844;5.304;2022-08-19T11:29:11;25.90;93.40
29939;DHT22;16799;50.844;5.304;2022-08-19T11:31:40;26.20;91.90
29939;DHT22;16799;50.844;5.304;2022-08-19T11:34:08;26.60;91.70
29939;DHT22;16799;50.844;5.304;2022-08-19T11:36:38;27.00;91.10
29939;DHT22;16799;50.844;5.304;2022-08-19T11:39:06;26.90;91.60
29939;DHT22;16799;50.844;5.304;2022-08-19T11:41:32;27.30;91.60
29939;DHT22;16799;50.844;5.304;2022-08-19T11:43:58;27.60;90.20
29939;DHT22;16799;50.844;5.304;2022-08-19T11:46:27;27.30;90.60
29939;DHT22;16799;50.844;5.304;2022-08-19T11:48:56;26.90;91.10
29939;DHT22;16799;50.844;5.304;2022-08-19T11:51:23;26.30;92.30
29939;DHT22;16799;50.844;5.304;2022-08-19T11:53:50;26.00;93.40
29939;DHT22;16799;50.844;5.304;2022-08-19T11:56:17;26.30;92.90
29939;DHT22;16799;50.844;5.304;2022-08-19T11:58:44;26.20;93.20
29939;DHT22;16799;50.844;5.304;2022-08-19T12:01:11;26.60;92.90
29939;DHT22;16799;50.844;5.304;2022-08-19T12:03:38;26.60;92.20
29939;DHT22;16799;50.844;5.304;2022-08-19T12:06:09;26.50;92.60
29939;DHT22;16799;50.844;5.304;2022-08-19T12:08:35;26.10;93.20
29939;DHT22;16799;50.844;5.304;2022-08-19T12:11:01;25.80;94.00
29939;DHT22;16799;50.844;5.304;2022-08-19T12:13:29;25.90;94.40
29939;DHT22;16799;50.844;5.304;2022-08-19T12:15:55;26.30;94.00
29939;DHT22;16799;50.844;5.304;2022-08-19T12:18:21;26.40;93.60
29939;DHT22;16799;50.844;5.304;2022-08-19T12:20:50;26.20;94.30
29939;DHT22;16799;50.844;5.304;2022-08-19T12:23:16;26.60;94.20
29939;DHT22;16799;50.844;5.304;2022-08-19T12:25:46;27.20;92.70
29939;DHT22;16799;50.844;5.304;2022-08-19T12:28:16;26.90;93.10
29939;DHT22;16799;50.844;5.304;2022-08-19T12:30:41;26.40;93.80
29939;DHT22;16799;50.844;5.304;2022-08-19T12:33:07;26.00;94.60
29939;DHT22;16799;50.844;5.304;2022-08-19T12:35:33;25.80;95.30
29939;DHT22;16799;50.844;5.304;2022-08-19T12:37:59;25.80;95.30
29939;DHT22;16799;50.844;5.304;2022-08-19T12:40:27;25.50;96.30
29939;DHT22;16799;50.844;5.304;2022-08-19T12:42:53;25.40;95.60
29939;DHT22;16799;50.844;5.304;2022-08-19T12:45:19;25.60;96.50
29939;DHT22;16799;50.844;5.304;2022-08-19T12:47:44;25.50;96.30
29939;DHT22;16799;50.844;5.304;2022-08-19T12:50:11;25.30;97.30
29939;DHT22;16799;50.844;5.304;2022-08-19T12:52:37;25.50;97.20
29939;DHT22;16799;50.844;5.304;2022-08-19T12:55:05;25.60;97.00
29939;DHT22;16799;50.844;5.304;2022-08-19T12:57:31;25.20;97.80
29939;DHT22;16799;50.844;5.304;2022-08-19T13:00:03;24.80;99.20
29939;DHT22;16799;50.844;5.304;2022-08-19T13:02:31;24.70;99.90
29939;DHT22;16799;50.844;5.304;2022-08-19T13:04:57;24.50;99.90
29939;DHT22;16799;50.844;5.304;2022-08-19T13:07:23;24.40;99.90
29939;DHT22;16799;50.844;5.304;2022-08-19T13:09:51;24.30;99.90
29939;DHT22;16799;50.844;5.304;2022-08-19T13:12:17;24.40;99.90
29939;DHT22;16799;50.844;5.304;2022-08-19T13:14:46;24.50;99.90
29939;DHT22;16799;50.844;5.304;2022-08-19T13:17:15;24.50;99.90
29939;DHT22;16799;50.844;5.304;2022-08-19T13:19:41;24.80;99.90
29939;DHT22;16799;50.844;5.304;2022-08-19T13:22:06;25.20;99.90
29939;DHT22;16799;50.844;5.304;2022-08-19T13:24:32;25.60;99.90
29939;DHT22;16799;50.844;5.304;2022-08-19T13:26:59;25.60;99.90
29939;DHT22;16799;50.844;5.304;2022-08-19T13:29:25;25.40;99.50
29939;DHT22;16799;50.844;5.304;2022-08-19T13:32:11;25.30;99.70
29939;DHT22;16799;50.844;5.304;2022-08-19T13:34:55;25.30;99.90
29939;DHT22;16799;50.844;5.304;2022-08-19T13:37:21;25.50;99.90
29939;DHT22;16799;50.844;5.304;2022-08-19T13:40:25;25.40;99.90
29939;DHT22;16799;50.844;5.304;2022-08-19T13:42:53;25.30;99.60
29939;DHT22;16799;50.844;5.304;2022-08-19T13:45:22;25.50;99.90
29939;DHT22;16799;50.844;5.304;2022-08-19T13:47:49;25.70;99.70
29939;DHT22;16799;50.844;5.304;2022-08-19T13:50:21;25.70;99.90
29939;DHT22;16799;50.844;5.304;2022-08-19T13:52:48;25.70;99.90
29939;DHT22;16799;50.844;5.304;2022-08-19T13:55:15;25.90;99.40
29939;DHT22;16799;50.844;5.304;2022-08-19T13:57:41;25.90;99.20
29939;DHT22;16799;50.844;5.304;2022-08-19T14:00:13;26.30;98.10
29939;DHT22;16799;50.844;5.304;2022-08-19T14:02:39;26.40;98.10
29939;DHT22;16799;50.844;5.304;2022-08-19T14:05:07;26.50;97.70
29939;DHT22;16799;50.844;5.304;2022-08-19T14:07:34;26.70;97.30
29939;DHT22;16799;50.844;5.304;2022-08-19T14:10:00;27.40;95.90
29939;DHT22;16799;50.844;5.304;2022-08-19T14:12:26;27.40;95.50
29939;DHT22;16799;50.844;5.304;2022-08-19T14:14:51;27.10;95.80
29939;DHT22;16799;50.844;5.304;2022-08-19T14:17:17;27.30;95.70
29939;DHT22;16799;50.844;5.304;2022-08-19T14:19:43;27.30;95.60
29939;DHT22;16799;50.844;5.304;2022-08-19T14:22:09;27.00;95.90
29939;DHT22;16799;50.844;5.304;2022-08-19T14:24:37;27.60;95.50
29939;DHT22;16799;50.844;5.304;2022-08-19T14:27:04;30.10;90.90
29939;DHT22;16799;50.844;5.304;2022-08-19T14:29:29;31.50;83.80
29939;DHT22;16799;50.844;5.304;2022-08-19T14:31:55;32.10;80.70
29939;DHT22;16799;50.844;5.304;2022-08-19T14:34:25;33.50;76.30
29939;DHT22;16799;50.844;5.304;2022-08-19T14:36:52;33.50;74.10
29939;DHT22;16799;50.844;5.304;2022-08-19T14:39:17;32.40;74.60
29939;DHT22;16799;50.844;5.304;2022-08-19T14:41:43;31.20;78.30
29939;DHT22;16799;50.844;5.304;2022-08-19T14:44:11;29.60;83.60
29939;DHT22;16799;50.844;5.304;2022-08-19T14:46:38;28.80;87.00
29939;DHT22;16799;50.844;5.304;2022-08-19T14:49:04;28.90;86.70
29939;DHT22;16799;50.844;5.304;2022-08-19T14:51:30;28.30;89.50
29939;DHT22;16799;50.844;5.304;2022-08-19T14:53:56;29.60;87.40
29939;DHT22;16799;50.844;5.304;2022-08-19T14:56:27;31.80;79.50
29939;DHT22;16799;50.844;5.304;2022-08-19T14:58:53;32.70;75.30
29939;DHT22;16799;50.844;5.304;2022-08-19T15:01:22;33.10;73.20
29939;DHT22;16799;50.844;5.304;2022-08-19T15:03:48;33.50;72.60
29939;DHT22;16799;50.844;5.304;2022-08-19T15:06:15;33.10;71.70
29939;DHT22;16799;50.844;5.304;2022-08-19T15:08:41;31.80;74.20
29939;DHT22;16799;50.844;5.304;2022-08-19T15:11:13;30.40;78.10
29939;DHT22;16799;50.844;5.304;2022-08-19T15:13:41;29.10;82.20
29939;DHT22;16799;50.844;5.304;2022-08-19T15:16:07;28.90;83.60
29939;DHT22;16799;50.844;5.304;2022-08-19T15:18:33;28.90;84.10
29939;DHT22;16799;50.844;5.304;2022-08-19T15:21:00;28.60;84.30
29939;DHT22;16799;50.844;5.304;2022-08-19T15:23:26;28.40;87.30
29939;DHT22;16799;50.844;5.304;2022-08-19T15:25:52;27.90;89.30
29939;DHT22;16799;50.844;5.304;2022-08-19T15:28:23;27.40;90.50
29939;DHT22;16799;50.844;5.304;2022-08-19T15:30:49;27.00;91.60
29939;DHT22;16799;50.844;5.304;2022-08-19T15:33:15;26.90;92.60
29939;DHT22;16799;50.844;5.304;2022-08-19T15:35:43;26.60;93.10
29939;DHT22;16799;50.844;5.304;2022-08-19T15:38:09;26.40;94.00
29939;DHT22;16799;50.844;5.304;2022-08-19T15:40:35;26.30;93.90
29939;DHT22;16799;50.844;5.304;2022-08-19T15:43:01;26.20;94.40
29939;DHT22;16799;50.844;5.304;2022-08-19T15:45:27;26.20;94.60
29939;DHT22;16799;50.844;5.304;2022-08-19T15:48:01;26.30;94.50